Time;durP1;ratioP1;P1;durP2;ratioP2;P2;SDS_P1;SDS_P2;PMS_P1;PMS_P2;Temp;Humidity;BMP_temperature;BMP_pressure;BME280_temperature;BME280_humidity;BME280_pressure;Samples;Min_cycle;Max_cycle;Signal;HPM_P1;HPM_P2
2022/05/05 00:01:38;;;;;;;7.25;6.57;;;;;;;16.86;59.92;101431.25;4930858;29;20438;-82
2022/05/05 00:04:05;;;;;;;6.80;6.20;;;;;;;16.95;60.01;101452.78;4933755;29;20058;-82
2022/05/05 00:06:32;;;;;;;6.63;6.03;;;;;;;16.90;59.97;101436.31;4950005;29;20039;-82
2022/05/05 00:08:59;;;;;;;6.80;6.10;;;;;;;16.69;59.59;101399.94;4933710;28;20062;-81
2022/05/05 00:14:31;;;;;;;6.78;5.88;;;;;;;16.91;59.75;101440.69;4947354;28;20054;-82
2022/05/05 00:17:03;;;;;;;7.55;6.47;;;;;;;17.05;59.41;101464.25;4931607;29;20055;-82
2022/05/05 00:19:32;;;;;;;7.45;6.75;;;;;;;17.01;59.20;101441.41;4934342;28;20039;-82
2022/05/05 00:22:00;;;;;;;6.60;6.00;;;;;;;16.98;59.21;101436.38;4950532;28;20051;-84
2022/05/05 00:24:27;;;;;;;9.93;6.53;;;;;;;16.88;58.78;101415.84;4935238;29;20058;-83
2022/05/05 00:26:54;;;;;;;8.02;6.10;;;;;;;17.16;58.64;101461.31;4934822;29;20055;-82
2022/05/05 00:29:21;;;;;;;6.90;6.25;;;;;;;17.09;58.87;101463.78;4918307;29;20440;-82
2022/05/05 00:31:48;;;;;;;7.28;6.00;;;;;;;17.01;58.87;101454.81;4915628;29;20062;-81
2022/05/05 00:34:15;;;;;;;6.75;6.05;;;;;;;16.83;58.83;101433.41;4932083;29;20138;-83
2022/05/05 00:36:42;;;;;;;7.05;6.00;;;;;;;16.96;58.94;101459.81;4915132;29;20052;-82
2022/05/05 00:39:11;;;;;;;7.32;6.63;;;;;;;16.57;59.28;101385.09;4932140;29;20207;-82
2022/05/05 00:41:47;;;;;;;6.25;5.75;;;;;;;16.93;59.42;101457.47;4915201;29;20166;-82
2022/05/05 00:44:15;;;;;;;6.10;5.53;;;;;;;16.74;59.55;101431.66;4915045;29;20074;-82
2022/05/05 00:46:50;;;;;;;9.20;6.05;;;;;;;16.82;59.81;101454.03;4915365;29;20066;-82
2022/05/05 00:49:18;;;;;;;6.90;6.25;;;;;;;16.71;60.03;101446.22;4931941;29;20051;-82
2022/05/05 00:51:45;;;;;;;7.68;6.47;;;;;;;16.48;59.97;101418.19;4914774;29;20060;-82
2022/05/05 00:54:12;;;;;;;7.22;6.22;;;;;;;16.51;60.11;101439.34;4915139;29;20193;-82
2022/05/05 00:56:40;;;;;;;7.68;6.57;;;;;;;16.30;59.92;101410.19;4914855;29;20075;-82
2022/05/05 00:59:08;;;;;;;7.75;6.25;;;;;;;16.27;60.28;101414.03;4914613;29;20517;-81
2022/05/05 01:01:35;;;;;;;7.53;6.63;;;;;;;16.29;60.43;101420.06;4914515;29;20253;-81
2022/05/05 01:04:02;;;;;;;7.40;6.65;;;;;;;16.34;60.40;101441.06;4929955;29;20269;-83
2022/05/05 01:06:30;;;;;;;7.70;5.70;;;;;;;16.33;60.93;101445.53;4914396;29;20585;-80
2022/05/05 01:09:03;;;;;;;6.57;5.80;;;;;;;16.30;60.97;101448.53;4914469;29;20185;-82
2022/05/05 01:11:30;;;;;;;9.70;6.72;;;;;;;16.13;61.38;101422.59;4914827;29;20060;-82
2022/05/05 01:14:03;;;;;;;7.00;6.28;;;;;;;15.21;61.84;101289.78;4914746;29;20646;-82
2022/05/05 01:16:31;;;;;;;6.90;6.30;;;;;;;15.69;61.66;101366.22;4914587;29;20055;-83
2022/05/05 01:18:57;;;;;;;6.32;5.82;;;;;;;16.01;61.55;101422.81;4914343;29;20407;-83
2022/05/05 01:21:24;;;;;;;8.80;6.80;;;;;;;16.12;61.48;101423.59;4914471;29;20044;-83
2022/05/05 01:23:51;;;;;;;6.57;6.05;;;;;;;16.21;61.21;101431.56;4914571;29;20043;-80
2022/05/05 01:29:06;;;;;;;7.60;6.60;;;;;;;16.27;61.45;101434.63;4945875;28;20082;-83
2022/05/05 01:31:33;;;;;;;7.60;6.90;;;;;;;16.18;61.18;101428.34;4933507;29;20366;-83
2022/05/05 01:34:00;;;;;;;7.35;6.65;;;;;;;16.19;61.51;101435.34;4933100;28;20066;-82
2022/05/05 01:36:27;;;;;;;6.90;6.28;;;;;;;16.16;61.53;101438.34;4933117;29;20519;-82
2022/05/05 01:38:53;;;;;;;8.07;5.97;;;;;;;15.86;61.56;101381.50;4933125;28;20401;-81
2022/05/05 01:41:21;;;;;;;7.38;6.65;;;;;;;16.09;62.17;101423.88;4932241;29;20055;-82
2022/05/05 01:43:48;;;;;;;7.60;6.45;;;;;;;15.87;62.19;101383.16;4949003;28;20047;-82
2022/05/05 01:46:15;;;;;;;10.85;7.07;;;;;;;16.02;62.14;101405.75;4950109;28;20051;-83
2022/05/05 01:48:42;;;;;;;7.13;6.40;;;;;;;16.26;61.77;101417.69;4949683;28;20078;-83
2022/05/05 01:51:08;;;;;;;8.73;6.13;;;;;;;16.11;62.16;101401.31;4932782;28;20051;-82
2022/05/05 01:53:38;;;;;;;7.28;6.57;;;;;;;16.00;61.81;101386.31;4948830;29;20051;-82
2022/05/05 01:56:06;;;;;;;6.95;6.18;;;;;;;16.16;62.30;101415.06;4948192;28;20051;-82
2022/05/05 01:58:33;;;;;;;14.57;6.63;;;;;;;15.83;62.01;101371.09;4948978;28;20114;-83
2022/05/05 02:01:00;;;;;;;9.73;7.18;;;;;;;15.80;62.14;101376.72;4932798;28;20043;-82
2022/05/05 02:03:27;;;;;;;7.90;7.15;;;;;;;15.93;62.58;101401.31;4932322;28;20141;-82
2022/05/05 02:05:54;;;;;;;9.75;7.28;;;;;;;15.92;62.67;101413.03;4949133;28;20051;-82
2022/05/05 02:08:21;;;;;;;7.40;6.70;;;;;;;15.03;62.93;101277.22;4933049;28;20047;-82
2022/05/05 02:10:47;;;;;;;8.75;7.00;;;;;;;15.36;63.15;101331.06;4935299;29;20058;-81
2022/05/05 02:13:14;;;;;;;8.45;7.18;;;;;;;15.70;62.89;101392.03;4936121;28;20051;-82
2022/05/05 02:15:41;;;;;;;8.38;6.75;;;;;;;15.82;62.93;101396.16;4933787;28;20055;-83
2022/05/05 02:18:09;;;;;;;7.45;6.43;;;;;;;15.79;62.42;101385.75;4932180;28;20044;-83
2022/05/05 02:20:37;;;;;;;7.78;6.95;;;;;;;15.77;61.98;101366.34;4932600;28;20047;-81
2022/05/05 02:23:05;;;;;;;8.05;6.72;;;;;;;15.89;61.47;101367.78;4950105;28;20372;-81
2022/05/05 02:25:33;;;;;;;8.05;6.93;;;;;;;16.09;62.35;101415.84;4933575;29;20047;-82
2022/05/05 02:28:00;;;;;;;6.55;5.95;;;;;;;15.98;62.11;101411.56;4943215;28;20058;-82
2022/05/05 02:30:28;;;;;;;7.28;6.57;;;;;;;15.70;62.50;101371.44;4930573;29;20063;-82
2022/05/05 02:32:56;;;;;;;7.28;6.68;;;;;;;15.84;62.89;101404.88;4913870;29;20552;-81
2022/05/05 02:35:23;;;;;;;6.68;6.18;;;;;;;15.21;63.04;101321.88;4913524;29;20365;-82
2022/05/05 02:40:36;;;;;;;10.10;6.97;;;;;;;15.34;63.37;101370.50;4929476;29;20406;-82
2022/05/05 02:43:04;;;;;;;7.60;6.78;;;;;;;15.69;63.07;101425.13;4913614;29;20071;-81
2022/05/05 02:45:31;;;;;;;9.25;7.47;;;;;;;15.73;62.63;101430.06;4913314;29;20060;-82
2022/05/05 02:47:58;;;;;;;7.85;7.10;;;;;;;15.75;63.09;101437.91;4913615;29;20051;-82
2022/05/05 02:50:26;;;;;;;9.55;6.70;;;;;;;15.67;62.76;101421.75;4930662;29;20079;-82
2022/05/05 02:52:54;;;;;;;8.20;7.40;;;;;;;15.65;62.37;101432.59;4930422;29;20051;-82
2022/05/05 02:55:22;;;;;;;8.45;7.07;;;;;;;15.27;62.25;101380.13;4913025;29;20051;-82
2022/05/05 02:57:48;;;;;;;7.90;7.20;;;;;;;15.55;61.83;101427.28;4930094;29;20055;-82
2022/05/05 03:00:15;;;;;;;9.88;7.05;;;;;;;15.44;63.13;101423.97;4912941;29;20043;-81
2022/05/05 03:02:43;;;;;;;8.48;6.72;;;;;;;15.54;63.38;101462.25;4912559;29;20051;-82
2022/05/05 03:05:13;;;;;;;7.75;7.00;;;;;;;15.31;63.45;101426.97;4912788;29;20060;-82
2022/05/05 03:07:41;;;;;;;10.57;7.38;;;;;;;14.82;64.07;101356.81;4929110;29;20055;-82
2022/05/05 03:10:09;;;;;;;10.38;7.45;;;;;;;15.11;64.45;101427.06;4930161;29;20075;-83
2022/05/05 03:12:36;;;;;;;10.60;7.07;;;;;;;15.29;64.04;101443.19;4913007;29;20167;-82
2022/05/05 03:15:03;;;;;;;7.38;6.68;;;;;;;15.03;63.57;101386.00;4912655;29;20524;-82
2022/05/05 03:17:31;;;;;;;11.07;7.70;;;;;;;15.14;64.00;101410.69;4912447;29;20048;-82
2022/05/05 03:19:58;;;;;;;9.13;7.53;;;;;;;15.29;63.48;101448.53;4929657;29;20043;-83
2022/05/05 03:22:25;;;;;;;7.10;6.40;;;;;;;14.96;63.49;101415.97;4912754;29;20134;-82
2022/05/05 03:24:51;;;;;;;7.85;6.90;;;;;;;15.20;63.63;101443.22;4912233;29;20424;-82
2022/05/05 03:27:18;;;;;;;6.78;6.18;;;;;;;15.16;64.12;101443.50;4912895;29;20048;-82
2022/05/05 03:29:45;;;;;;;9.80;7.05;;;;;;;15.04;63.90;101427.78;4931661;29;20080;-82
2022/05/05 03:32:11;;;;;;;6.78;6.18;;;;;;;15.06;64.06;101437.34;4931228;29;20058;-82
2022/05/05 03:34:38;;;;;;;10.20;6.93;;;;;;;15.16;63.55;101451.53;4931811;29;20082;-82
2022/05/05 03:37:05;;;;;;;6.78;6.05;;;;;;;14.96;62.95;101404.47;4947232;28;20110;-82
2022/05/05 03:39:31;;;;;;;8.60;5.85;;;;;;;15.31;62.05;101435.00;4947322;28;20047;-82
2022/05/05 03:41:58;;;;;;;7.38;6.68;;;;;;;15.32;62.65;101448.25;4931243;28;20498;-82
2022/05/05 03:44:25;;;;;;;8.43;5.97;;;;;;;15.03;62.24;101410.91;4931388;28;20513;-81
2022/05/05 03:46:51;;;;;;;7.78;5.50;;;;;;;15.15;61.81;101432.97;4931324;28;20062;-82
2022/05/05 03:49:18;;;;;;;6.55;5.95;;;;;;;15.31;61.57;101456.41;4948469;28;20117;-81
2022/05/05 03:51:45;;;;;;;6.60;6.00;;;;;;;15.37;60.98;101471.88;4931344;28;20055;-82
2022/05/05 03:54:12;;;;;;;6.57;5.80;;;;;;;15.38;59.93;101469.03;4931339;28;20506;-82
2022/05/05 03:56:38;;;;;;;5.53;5.10;;;;;;;15.36;59.22;101448.78;4931140;29;20509;-82
2022/05/05 03:59:06;;;;;;;5.72;5.20;;;;;;;15.46;59.39;101452.28;4931354;29;20066;-82
2022/05/05 04:01:32;;;;;;;7.00;6.03;;;;;;;15.13;59.14;101394.81;4930596;29;20047;-82
2022/05/05 04:03:59;;;;;;;6.05;5.45;;;;;;;15.44;59.17;101445.38;4931076;29;20444;-82
2022/05/05 04:06:26;;;;;;;6.45;5.70;;;;;;;15.49;58.82;101441.28;4946748;28;20482;-82
2022/05/05 04:08:53;;;;;;;5.38;4.90;;;;;;;15.16;58.64;101383.81;4931198;29;20402;-82
2022/05/05 04:11:19;;;;;;;6.80;6.15;;;;;;;15.52;58.69;101443.66;4946810;28;20345;-82
2022/05/05 04:13:46;;;;;;;10.02;5.32;;;;;;;15.47;58.81;101435.22;4930871;29;20051;-81
2022/05/05 04:16:13;;;;;;;13.00;6.32;;;;;;;15.32;59.00;101421.50;4931141;29;20051;-83
2022/05/05 04:18:40;;;;;;;5.85;5.45;;;;;;;15.42;59.25;101447.38;4947369;28;20050;-82
2022/05/05 04:21:07;;;;;;;5.93;5.43;;;;;;;15.12;59.40;101399.34;4949222;28;20053;-82
2022/05/05 04:23:34;;;;;;;10.00;6.05;;;;;;;15.22;59.41;101426.03;4932091;29;20273;-82
2022/05/05 04:26:11;;;;;;;5.90;5.43;;;;;;;15.29;59.56;101436.97;4948617;28;20549;-83
2022/05/05 04:28:40;;;;;;;7.60;6.03;;;;;;;15.10;58.96;101409.34;4934127;29;20079;-81
2022/05/05 04:31:10;;;;;;;6.20;5.60;;;;;;;15.46;58.95;101465.66;4944608;29;20396;-83
2022/05/05 04:33:38;;;;;;;5.60;5.13;;;;;;;14.99;59.03;101372.06;4946258;29;20043;-82
2022/05/05 04:36:06;;;;;;;6.47;5.78;;;;;;;15.54;59.15;101465.75;4929165;29;20143;-81
2022/05/05 04:38:33;;;;;;;5.05;4.55;;;;;;;15.54;58.63;101463.06;4946139;29;20390;-81
2022/05/05 04:41:01;;;;;;;6.97;5.75;;;;;;;15.71;58.71;101476.69;4928881;29;20051;-82
2022/05/05 04:43:27;;;;;;;9.80;5.65;;;;;;;15.73;58.40;101477.41;4928978;29;20079;-83
2022/05/05 04:45:54;;;;;;;7.65;4.93;;;;;;;15.71;58.51;101456.13;4928994;29;20051;-82
2022/05/05 04:48:21;;;;;;;6.03;5.43;;;;;;;15.85;58.12;101481.56;4906524;29;20412;-82
2022/05/05 04:50:48;;;;;;;6.15;5.60;;;;;;;15.72;58.28;101443.56;4909427;29;20132;-81
2022/05/05 04:53:14;;;;;;;5.55;5.05;;;;;;;16.01;58.12;101487.09;4910606;29;20455;-82
2022/05/05 04:55:41;;;;;;;6.95;5.38;;;;;;;16.05;57.58;101492.16;4915456;29;20086;-83
2022/05/05 04:58:08;;;;;;;6.90;5.95;;;;;;;16.22;57.49;101494.84;4914075;29;20055;-83
2022/05/05 05:00:36;;;;;;;7.03;5.47;;;;;;;15.74;57.43;101393.41;4926332;29;20051;-81
2022/05/05 05:03:02;;;;;;;8.18;7.47;;;;;;;16.36;56.90;101496.16;4928679;29;20102;-81
2022/05/05 05:05:29;;;;;;;6.03;5.40;;;;;;;16.11;57.08;101478.97;4914995;29;20486;-84
2022/05/05 05:07:56;;;;;;;7.90;5.72;;;;;;;16.21;57.14;101500.34;4930795;29;20544;-84
2022/05/05 05:10:23;;;;;;;5.45;4.95;;;;;;;15.98;57.88;101465.97;4930768;29;20059;-85
2022/05/05 05:12:50;;;;;;;7.55;5.93;;;;;;;15.74;57.57;101430.88;4930923;29;20056;-85
2022/05/05 05:15:17;;;;;;;7.85;5.68;;;;;;;16.15;57.55;101493.78;4934441;29;20063;-84
2022/05/05 05:17:44;;;;;;;6.13;5.63;;;;;;;15.80;57.80;101428.47;4932671;29;20059;-85
2022/05/05 05:20:12;;;;;;;10.80;5.82;;;;;;;15.46;58.10;101366.66;4914778;29;20482;-84
2022/05/05 05:22:38;;;;;;;8.18;5.47;;;;;;;16.25;57.61;101493.69;4931791;29;20052;-85
2022/05/05 05:25:05;;;;;;;6.68;5.57;;;;;;;16.29;57.51;101495.09;4931651;29;20414;-85
2022/05/05 05:27:32;;;;;;;6.28;5.70;;;;;;;16.30;57.65;101491.41;4930278;29;20047;-85
2022/05/05 05:29:59;;;;;;;6.40;5.72;;;;;;;16.16;57.99;101475.84;4934094;29;20364;-84
2022/05/05 05:32:25;;;;;;;6.40;5.55;;;;;;;16.24;57.85;101473.28;4915342;29;20255;-85
2022/05/05 05:34:52;;;;;;;6.93;6.05;;;;;;;16.17;58.15;101466.84;4915618;29;20052;-85
2022/05/05 05:37:19;;;;;;;10.07;6.25;;;;;;;16.41;58.08;101488.50;4916383;29;20074;-84
2022/05/05 05:39:46;;;;;;;7.53;5.82;;;;;;;15.99;57.32;101432.81;4933395;29;20047;-84
2022/05/05 05:42:13;;;;;;;6.60;5.65;;;;;;;16.43;57.19;101497.25;4933059;29;20133;-84
2022/05/05 05:44:40;;;;;;;6.32;5.72;;;;;;;16.47;56.71;101502.28;4930617;29;20229;-84
2022/05/05 05:47:10;;;;;;;5.75;5.25;;;;;;;16.51;56.65;101509.88;4915230;29;20061;-84
2022/05/05 05:49:37;;;;;;;6.30;5.05;;;;;;;16.33;56.96;101491.09;4930881;29;20052;-85
2022/05/05 05:52:04;;;;;;;8.40;5.55;;;;;;;16.49;57.26;101508.34;4913876;29;20052;-85
2022/05/05 05:54:31;;;;;;;6.35;5.85;;;;;;;16.58;56.47;101515.47;4914469;29;20374;-84
2022/05/05 05:56:58;;;;;;;6.68;5.57;;;;;;;16.42;56.50;101474.09;4916641;29;20051;-84
2022/05/05 05:59:24;;;;;;;7.25;6.32;;;;;;;16.23;56.01;101447.47;4914599;29;20058;-85
2022/05/05 06:04:37;;;;;;;6.15;5.35;;;;;;;16.73;56.53;101529.19;4930860;29;20253;-84
2022/05/05 06:07:03;;;;;;;9.70;6.32;;;;;;;16.56;56.54;101493.34;4913956;29;20345;-84
2022/05/05 06:09:30;;;;;;;7.53;5.85;;;;;;;16.66;56.65;101496.78;4913470;29;20454;-82
2022/05/05 06:11:57;;;;;;;7.03;5.63;;;;;;;16.01;56.35;101396.03;4914156;29;20209;-83
2022/05/05 06:14:24;;;;;;;6.82;5.68;;;;;;;16.73;55.62;101502.38;4929030;29;20059;-84
2022/05/05 06:16:50;;;;;;;7.18;5.82;;;;;;;16.94;55.88;101531.53;4913915;29;20056;-84
2022/05/05 06:19:17;;;;;;;8.27;6.20;;;;;;;16.23;55.58;101416.16;4930379;29;20051;-84
2022/05/05 06:21:47;;;;;;;6.63;6.03;;;;;;;16.53;55.72;101464.13;4913360;29;20063;-84
2022/05/05 06:24:14;;;;;;;6.60;5.75;;;;;;;16.48;55.33;101442.31;4913586;29;20048;-85
2022/05/05 06:26:40;;;;;;;9.55;5.95;;;;;;;17.11;55.15;101535.19;4930925;29;20281;-84
2022/05/05 06:29:07;;;;;;;6.88;6.18;;;;;;;15.68;54.64;101302.97;4932901;29;20062;-86
2022/05/05 06:31:34;;;;;;;11.32;6.07;;;;;;;17.11;55.27;101536.03;4917410;29;20059;-85
2022/05/05 06:34:01;;;;;;;6.68;5.95;;;;;;;17.18;55.47;101544.31;4915045;29;20086;-85
2022/05/05 06:36:28;;;;;;;6.78;5.88;;;;;;;16.94;55.30;101510.91;4912364;29;20048;-84
2022/05/05 06:38:55;;;;;;;9.25;5.57;;;;;;;17.16;55.45;101555.22;4912240;29;20047;-86
2022/05/05 06:41:22;;;;;;;6.63;5.70;;;;;;;17.04;55.46;101533.16;4929571;29;20052;-83
2022/05/05 06:43:48;;;;;;;7.25;6.13;;;;;;;16.94;55.54;101510.09;4912267;29;20079;-84
2022/05/05 06:46:15;;;;;;;5.90;5.40;;;;;;;17.18;55.84;101541.63;4912601;29;20059;-84
2022/05/05 06:48:55;;;;;;;8.10;5.82;;;;;;;17.15;55.71;101529.38;4913980;29;20083;-85
2022/05/05 06:51:21;;;;;;;6.28;5.78;;;;;;;17.14;55.09;101530.38;4928586;29;20110;-85
2022/05/05 06:53:48;;;;;;;7.88;6.00;;;;;;;16.80;54.92;101461.41;4913720;29;20062;-86
2022/05/05 06:56:14;;;;;;;14.80;7.40;;;;;;;17.22;54.89;101530.41;4930671;29;20051;-85
2022/05/05 06:58:41;;;;;;;9.88;7.18;;;;;;;16.96;55.02;101479.44;4928736;29;20128;-85
2022/05/05 07:06:42;;;;;;;9.05;7.32;;;;;;;17.07;55.04;101499.81;4935337;29;20051;-86
2022/05/05 07:11:54;;;;;;;8.05;7.13;;;;;;;16.96;55.09;101446.41;4929997;29;20063;-86
2022/05/05 07:14:21;;;;;;;8.73;7.03;;;;;;;17.48;55.10;101535.78;4928630;29;20494;-84
2022/05/05 07:16:48;;;;;;;8.55;6.72;;;;;;;16.86;54.44;101444.66;4928350;29;20087;-85
2022/05/05 07:19:15;;;;;;;8.07;6.80;;;;;;;16.46;54.52;101375.50;4928590;29;20134;-85
2022/05/05 07:21:42;;;;;;;8.35;7.20;;;;;;;17.04;54.77;101470.63;4913109;29;20060;-85
2022/05/05 07:24:09;;;;;;;8.82;6.50;;;;;;;17.56;54.35;101561.84;4929911;29;20066;-85
2022/05/05 07:26:36;;;;;;;7.80;6.60;;;;;;;17.36;54.20;101530.84;4912216;29;20055;-84
2022/05/05 07:29:03;;;;;;;9.73;7.18;;;;;;;17.51;54.52;101542.69;4912539;29;20051;-85
2022/05/05 07:31:29;;;;;;;7.43;6.72;;;;;;;17.49;53.84;101536.63;4912374;29;20040;-85
2022/05/05 07:33:57;;;;;;;7.03;6.40;;;;;;;17.48;53.88;101545.69;4912393;29;20434;-84
2022/05/05 07:36:24;;;;;;;7.40;6.70;;;;;;;17.72;53.96;101561.94;4928360;29;20062;-85
2022/05/05 07:38:51;;;;;;;9.27;6.97;;;;;;;17.74;54.69;101561.75;4912569;29;20047;-85
2022/05/05 07:41:18;;;;;;;8.05;6.38;;;;;;;17.77;53.53;101555.22;4912572;29;20444;-84
2022/05/05 07:43:44;;;;;;;6.53;5.93;;;;;;;17.80;54.42;101562.97;4912240;29;20047;-85
2022/05/05 07:46:11;;;;;;;7.90;6.80;;;;;;;17.87;53.85;101562.19;4912222;29;20521;-83
2022/05/05 07:48:38;;;;;;;9.05;7.38;;;;;;;17.73;52.87;101534.06;4912114;29;20050;-83
2022/05/05 07:51:05;;;;;;;7.40;6.70;;;;;;;17.48;52.63;101489.31;4912304;29;20056;-86
2022/05/05 07:53:31;;;;;;;8.10;6.40;;;;;;;17.71;53.43;101528.00;4912447;29;20062;-87
2022/05/05 07:55:58;;;;;;;7.20;6.50;;;;;;;17.62;52.65;101515.56;4927998;29;20280;-85
2022/05/05 07:58:25;;;;;;;8.27;6.32;;;;;;;17.01;52.94;101409.22;4912262;29;20078;-83
2022/05/05 08:00:52;;;;;;;11.02;6.30;;;;;;;16.56;53.32;101340.56;4911724;29;20110;-85
2022/05/05 08:03:19;;;;;;;6.72;5.85;;;;;;;16.74;53.23;101357.41;4911773;29;20110;-85
2022/05/05 08:05:46;;;;;;;7.80;6.15;;;;;;;17.29;53.12;101445.59;4927854;29;20422;-84
2022/05/05 08:08:13;;;;;;;7.18;6.25;;;;;;;17.36;52.10;101431.56;4911835;29;20139;-84
2022/05/05 08:10:40;;;;;;;6.97;5.90;;;;;;;17.66;52.20;101482.00;4929144;29;20339;-82
2022/05/05 08:13:07;;;;;;;5.88;5.38;;;;;;;18.04;52.60;101556.91;4911982;29;20055;-84
2022/05/05 08:15:34;;;;;;;8.95;6.80;;;;;;;17.54;52.67;101480.59;4911435;29;20130;-84
2022/05/05 08:18:01;;;;;;;8.82;6.70;;;;;;;17.91;52.44;101531.34;4911864;29;20140;-85
2022/05/05 08:20:28;;;;;;;6.60;6.00;;;;;;;18.20;52.18;101572.22;4911987;29;20102;-85
2022/05/05 08:22:55;;;;;;;7.90;6.07;;;;;;;18.19;52.08;101555.28;4911777;29;20052;-83
2022/05/05 08:30:52;;;;;;;7.85;6.30;;;;;;;18.27;51.44;101566.03;4929163;29;20048;-85
2022/05/05 08:33:18;;;;;;;7.47;6.70;;;;;;;18.20;52.14;101554.25;4928045;29;20057;-84
2022/05/05 08:35:45;;;;;;;7.07;6.30;;;;;;;18.17;52.12;101557.28;4931161;29;20059;-83
2022/05/05 08:38:13;;;;;;;7.65;6.03;;;;;;;18.32;51.87;101589.75;4932676;29;20047;-84
2022/05/05 08:40:41;;;;;;;6.93;6.32;;;;;;;18.19;52.02;101559.81;4920435;29;20082;-86
2022/05/05 08:43:08;;;;;;;9.13;6.45;;;;;;;18.31;52.63;101580.00;4933385;29;20051;-84
2022/05/05 08:45:37;;;;;;;8.88;6.93;;;;;;;18.06;52.63;101528.00;4918951;29;20059;-86
2022/05/05 08:48:07;;;;;;;9.35;7.30;;;;;;;17.86;52.28;101481.78;4923081;29;20505;-84
2022/05/05 08:50:36;;;;;;;8.13;7.35;;;;;;;18.02;52.21;101506.00;4937235;29;20054;-84
2022/05/05 08:53:05;;;;;;;10.00;9.00;;;;;;;17.53;52.56;101441.34;4921395;29;20138;-84
2022/05/05 08:55:32;;;;;;;10.10;9.02;;;;;;;18.16;52.85;101542.16;4933542;29;20509;-84
2022/05/05 08:58:02;;;;;;;11.25;7.93;;;;;;;18.35;53.27;101565.25;4932404;29;20062;-83
2022/05/05 09:00:31;;;;;;;14.68;9.88;;;;;;;18.55;53.39;101592.66;4931586;29;20415;-82
2022/05/05 09:03:04;;;;;;;12.32;10.65;;;;;;;18.50;53.57;101584.25;4914793;29;20083;-85
2022/05/05 09:05:42;;;;;;;14.15;11.05;;;;;;;18.63;53.91;101595.38;4931730;29;20044;-85
2022/05/05 09:08:30;;;;;;;14.40;11.35;;;;;;;18.56;54.20;101589.81;4930719;29;20083;-85
2022/05/05 09:11:05;;;;;;;19.58;12.35;;;;;;;18.47;53.26;101574.69;4931090;29;20063;-85
2022/05/05 09:13:37;;;;;;;11.23;10.18;;;;;;;18.50;53.78;101568.97;4932268;29;20303;-84
2022/05/05 09:16:05;;;;;;;16.95;11.63;;;;;;;18.62;54.31;101592.84;4915078;29;20052;-84
2022/05/05 09:18:34;;;;;;;11.70;10.48;;;;;;;18.64;54.10;101593.50;4930552;29;20154;-84
2022/05/05 09:21:04;;;;;;;17.40;12.27;;;;;;;18.56;53.61;101579.03;4931753;29;20406;-83
2022/05/05 09:23:32;;;;;;;13.55;10.60;;;;;;;18.63;53.75;101590.00;4914742;29;20066;-85
2022/05/05 09:26:00;;;;;;;14.98;11.18;;;;;;;18.42;54.33;101563.56;4931795;29;20058;-84
2022/05/05 09:28:31;;;;;;;12.02;10.77;;;;;;;18.42;55.23;101568.94;4914369;29;20051;-85
2022/05/05 09:31:09;;;;;;;17.92;11.65;;;;;;;18.61;55.26;101575.03;4914790;29;20421;-84
2022/05/05 09:33:42;;;;;;;12.82;11.32;;;;;;;18.45;55.03;101555.19;4914662;29;20059;-85
2022/05/05 09:36:10;;;;;;;14.52;12.93;;;;;;;17.36;55.71;101385.94;4930373;29;20586;-85
2022/05/05 09:38:57;;;;;;;16.30;12.48;;;;;;;18.23;55.70;101519.00;4930092;29;20517;-84
2022/05/05 09:41:25;;;;;;;19.27;12.27;;;;;;;18.66;55.92;101594.19;4928370;29;20052;-84
2022/05/05 09:44:00;;;;;;;14.35;12.68;;;;;;;18.58;56.37;101601.25;4914385;29;20406;-84
2022/05/05 09:46:27;;;;;;;19.30;13.18;;;;;;;18.63;56.79;101605.28;4912864;29;20399;-84
2022/05/05 09:49:07;;;;;;;15.63;12.60;;;;;;;18.08;57.44;101521.50;4939006;28;20055;-84
2022/05/05 09:51:39;;;;;;;14.65;12.32;;;;;;;18.73;56.48;101601.44;4912879;29;20300;-86
2022/05/05 09:59:47;;;;;;;17.08;14.35;;;;;;;18.77;56.84;101596.59;4929751;29;20051;-85
2022/05/05 10:04:00;;;;;;;15.30;13.73;;;;;;;17.91;57.01;101466.88;4910628;29;20063;-85
2022/05/05 10:05:08;;;;;;;20.13;14.45;;;;;;;18.82;56.63;101599.63;4927260;29;20426;-84
2022/05/05 10:07:38;;;;;;;17.42;13.90;;;;;;;18.79;57.09;101602.66;4929337;29;20059;-84
2022/05/05 10:10:07;;;;;;;17.17;15.25;;;;;;;18.80;57.28;101612.41;4930622;29;20067;-84
2022/05/05 10:12:36;;;;;;;19.95;14.82;;;;;;;18.78;57.71;101611.72;4897928;29;20051;-84
2022/05/05 10:15:03;;;;;;;17.83;15.23;;;;;;;18.26;57.42;101524.06;4929971;29;20513;-86
2022/05/05 10:17:30;;;;;;;24.10;15.63;;;;;;;18.73;56.87;101571.84;4928793;29;20134;-85
2022/05/05 10:19:57;;;;;;;21.98;15.85;;;;;;;18.83;57.41;101600.47;4912714;29;20273;-85
2022/05/05 10:22:38;;;;;;;24.83;17.02;;;;;;;18.63;57.52;101578.41;4912419;29;20051;-84
2022/05/05 10:25:21;;;;;;;18.70;16.75;;;;;;;18.85;57.35;101593.91;4920641;29;20058;-84
2022/05/05 10:27:48;;;;;;;20.55;16.95;;;;;;;18.84;57.28;101603.00;4916659;28;20055;-84
2022/05/05 10:30:34;;;;;;;21.95;17.23;;;;;;;18.57;57.40;101556.53;4931709;29;20057;-85
2022/05/05 10:33:08;;;;;;;19.88;16.65;;;;;;;18.75;56.93;101593.22;4931545;29;20125;-85
2022/05/05 10:35:48;;;;;;;20.17;16.58;;;;;;;18.61;56.98;101553.50;4949644;28;20149;-86
2022/05/05 10:38:40;;;;;;;26.67;23.20;;;;;;;18.85;56.97;101588.53;4935033;29;20063;-85
2022/05/05 10:41:35;;;;;;;32.47;21.42;;;;;;;18.79;57.36;101592.75;4948511;29;20086;-85
2022/05/05 10:44:22;;;;;;;23.38;20.88;;;;;;;18.72;57.05;101572.03;4932101;29;20119;-84
2022/05/05 10:47:06;;;;;;;20.63;18.42;;;;;;;18.83;57.52;101585.16;4932618;29;20472;-84
2022/05/05 10:49:39;;;;;;;21.98;17.45;;;;;;;18.88;57.36;101598.97;4950623;29;20077;-86
2022/05/05 10:52:12;;;;;;;20.17;17.42;;;;;;;18.86;57.45;101576.78;4933453;29;20113;-84
2022/05/05 10:54:47;;;;;;;17.15;15.45;;;;;;;18.91;57.16;101579.81;4933215;29;20059;-84
2022/05/05 10:57:27;;;;;;;30.52;17.13;;;;;;;18.90;57.35;101575.41;4932475;29;20059;-85
2022/05/05 11:00:07;;;;;;;16.83;15.02;;;;;;;19.11;56.61;101583.00;4932560;28;20089;-84
2022/05/05 11:02:35;;;;;;;17.67;15.40;;;;;;;18.73;56.11;101519.91;4947760;29;20513;-84
2022/05/05 11:05:30;;;;;;;18.20;16.25;;;;;;;18.68;56.41;101523.09;4948748;29;20445;-86
2022/05/05 11:08:09;;;;;;;20.70;16.90;;;;;;;19.03;56.35;101590.22;4951095;28;20108;-85
2022/05/05 11:10:46;;;;;;;18.90;15.57;;;;;;;18.94;56.42;101586.69;4949630;28;20094;-85
2022/05/05 11:13:38;;;;;;;16.70;14.93;;;;;;;19.01;56.55;101582.34;4931836;29;20070;-84
2022/05/05 11:22:15;;;;;;;21.33;15.18;;;;;;;18.68;55.70;101506.13;4949898;29;20276;-85
2022/05/05 11:24:47;;;;;;;20.65;15.20;;;;;;;19.17;56.40;101574.22;4947360;29;20418;-85
2022/05/05 11:27:23;;;;;;;16.23;14.63;;;;;;;19.12;56.45;101568.53;4929541;29;20589;-85
2022/05/05 11:29:54;;;;;;;17.80;13.77;;;;;;;19.04;55.25;101548.88;4927652;29;20284;-84
2022/05/05 11:32:28;;;;;;;16.67;14.98;;;;;;;18.97;55.10;101554.06;4911352;29;20054;-84
2022/05/05 11:34:55;;;;;;;16.25;13.57;;;;;;;19.19;55.17;101582.16;4912336;29;20074;-84
2022/05/05 11:37:26;;;;;;;16.67;14.23;;;;;;;19.23;54.93;101572.75;4911089;29;20083;-85
2022/05/05 11:39:53;;;;;;;15.77;14.15;;;;;;;19.06;54.93;101545.00;4928402;29;20047;-85
2022/05/05 11:42:20;;;;;;;15.75;13.05;;;;;;;19.09;55.06;101544.66;4926969;29;20628;-85
2022/05/05 11:44:48;;;;;;;18.00;13.95;;;;;;;19.23;55.28;101553.91;4911387;29;20059;-84
2022/05/05 11:47:20;;;;;;;16.27;14.60;;;;;;;19.06;54.71;101517.25;4911135;29;20198;-84
2022/05/05 11:49:52;;;;;;;18.20;13.75;;;;;;;19.33;54.88;101581.47;4924630;29;20090;-85
2022/05/05 11:52:21;;;;;;;16.65;13.55;;;;;;;19.15;55.56;101552.06;4910197;29;20368;-85
2022/05/05 11:54:56;;;;;;;16.90;14.23;;;;;;;19.02;55.03;101532.03;4909840;29;20453;-84
2022/05/05 11:57:39;;;;;;;13.27;11.98;;;;;;;18.82;55.15;101496.59;4910885;29;20096;-86
2022/05/05 12:02:54;;;;;;;18.90;14.55;;;;;;;19.27;56.28;101578.59;4931369;29;20055;-83
2022/05/05 12:08:08;;;;;;;19.40;12.45;;;;;;;19.31;57.64;101564.63;4935343;29;20072;-83
2022/05/05 12:10:36;;;;;;;17.15;12.95;;;;;;;19.26;57.22;101558.94;4930883;29;20070;-84
2022/05/05 12:13:03;;;;;;;17.40;14.07;;;;;;;19.33;58.18;101576.09;4912043;29;20055;-83